createdAt,value
2022-12-25T00:01:27.341Z,3.06
2022-12-25T00:03:57.646Z,2.62
2022-12-25T00:06:26.463Z,2.84
2022-12-25T00:08:55.359Z,3.00
2022-12-25T00:11:24.284Z,3.00
2022-12-25T00:13:52.810Z,3.05
2022-12-25T00:16:27.374Z,2.61
2022-12-25T00:18:57.207Z,3.04
2022-12-25T00:21:25.963Z,2.75
2022-12-25T00:23:57.264Z,2.90
2022-12-25T00:26:27.977Z,2.78
2022-12-25T00:28:58.641Z,2.77
2022-12-25T00:31:30.416Z,2.72
2022-12-25T00:33:58.414Z,2.70
2022-12-25T00:36:26.540Z,2.69
2022-12-25T00:38:54.698Z,2.91
2022-12-25T00:41:43.761Z,2.65
2022-12-25T00:44:14.134Z,2.89
2022-12-25T00:46:42.974Z,2.93
2022-12-25T00:49:12.859Z,2.67
2022-12-25T00:51:41.321Z,2.97
2022-12-25T00:54:10.053Z,2.97
2022-12-25T00:56:38.532Z,2.72
2022-12-25T00:59:06.899Z,2.77
2022-12-25T01:01:35.353Z,2.66
2022-12-25T01:04:04.170Z,2.83
2022-12-25T01:06:33.068Z,2.78
2022-12-25T01:09:19.755Z,3.05
2022-12-25T01:11:48.121Z,2.75
2022-12-25T01:14:16.669Z,2.82
2022-12-25T01:16:45.565Z,3.02
2022-12-25T01:19:13.792Z,2.66
2022-12-25T01:21:41.949Z,2.84
2022-12-25T01:24:10.995Z,3.02
2022-12-25T01:26:39.334Z,2.69
2022-12-25T01:29:07.909Z,3.00
2022-12-25T01:31:36.527Z,2.20
2022-12-25T01:34:04.564Z,2.47
2022-12-25T01:36:32.674Z,3.05
2022-12-25T01:39:01.693Z,2.76
2022-12-25T01:41:30.781Z,2.91
2022-12-25T01:44:16.506Z,2.79
2022-12-25T01:46:45.560Z,2.99
2022-12-25T01:49:23.737Z,3.01
2022-12-25T01:52:03.527Z,2.83
2022-12-25T01:54:38.306Z,3.02
2022-12-25T01:57:15.160Z,2.93
2022-12-25T01:59:44.266Z,2.88
2022-12-25T02:02:13.086Z,2.71
2022-12-25T02:04:51.717Z,2.91
2022-12-25T02:07:24.218Z,2.93
2022-12-25T02:09:53.759Z,2.60
2022-12-25T02:12:30.111Z,2.90
2022-12-25T02:15:21.066Z,2.94
2022-12-25T02:18:39.316Z,2.78
2022-12-25T02:21:12.064Z,2.87
2022-12-25T02:24:01.426Z,2.84
2022-12-25T02:27:25.210Z,2.60
2022-12-25T02:30:11.573Z,2.79
2022-12-25T02:32:48.381Z,2.82
2022-12-25T02:35:31.272Z,2.77
2022-12-25T02:38:25.098Z,2.49
2022-12-25T02:40:59.489Z,2.56
2022-12-25T02:43:57.608Z,2.44
2022-12-25T02:46:48.069Z,2.90
2022-12-25T02:49:42.370Z,2.94
2022-12-25T02:52:39.107Z,2.93
2022-12-25T02:55:35.494Z,2.80
2022-12-25T02:58:29.052Z,2.82
2022-12-25T03:01:24.986Z,2.92
2022-12-25T03:04:17.096Z,2.91
2022-12-25T03:07:05.747Z,2.84
2022-12-25T03:10:05.294Z,2.86
2022-12-25T03:12:56.047Z,2.79
2022-12-25T03:15:43.836Z,2.80
2022-12-25T03:18:20.047Z,2.76
2022-12-25T03:21:07.779Z,2.30
2022-12-25T03:23:58.734Z,2.77
2022-12-25T03:26:46.113Z,2.76
2022-12-25T03:29:34.902Z,2.78
2022-12-25T03:33:17.799Z,2.82
2022-12-25T03:36:12.205Z,2.61
2022-12-25T03:39:21.158Z,2.78
2022-12-25T03:42:19.725Z,2.87
2022-12-25T03:45:41.223Z,2.55
2022-12-25T03:48:46.944Z,2.49
2022-12-25T03:51:37.614Z,2.43
2022-12-25T03:54:28.546Z,2.69
2022-12-25T03:57:15.957Z,2.67
2022-12-25T04:00:02.693Z,2.71
2022-12-25T04:02:57.024Z,2.44
2022-12-25T04:05:55.006Z,2.71
2022-12-25T04:08:42.135Z,2.64
2022-12-25T04:11:29.470Z,2.73
2022-12-25T04:14:16.433Z,2.41
2022-12-25T04:17:06.536Z,2.41
2022-12-25T04:19:54.076Z,2.30
2022-12-25T04:22:40.845Z,2.25
2022-12-25T04:25:27.658Z,2.54
2022-12-25T04:28:21.373Z,2.58
2022-12-25T04:31:08.670Z,2.60
2022-12-25T04:33:56.191Z,2.30
2022-12-25T04:36:24.462Z,2.57
2022-12-25T04:38:53.052Z,2.50
2022-12-25T04:41:21.107Z,2.51
2022-12-25T04:43:49.526Z,2.25
2022-12-25T04:46:18.115Z,2.52
2022-12-25T04:48:46.530Z,2.49
2022-12-25T04:51:18.771Z,2.50
2022-12-25T04:53:49.086Z,2.55
2022-12-25T04:56:18.152Z,2.18
2022-12-25T04:58:48.267Z,2.44
2022-12-25T05:01:17.228Z,2.50
2022-12-25T05:03:45.274Z,2.11
2022-12-25T05:06:13.706Z,2.28
2022-12-25T05:08:42.236Z,2.20
2022-12-25T05:11:14.303Z,2.32
2022-12-25T05:13:42.705Z,2.53
2022-12-25T05:16:18.922Z,2.12
2022-12-25T05:18:51.969Z,2.33
2022-12-25T05:21:20.826Z,2.32
2022-12-25T05:23:53.569Z,2.37
2022-12-25T05:26:25.760Z,2.32
2022-12-25T05:28:55.546Z,2.34
2022-12-25T05:31:24.563Z,2.43
2022-12-25T05:33:53.672Z,2.46
2022-12-25T05:36:22.012Z,2.44
2022-12-25T05:38:50.904Z,2.15
2022-12-25T05:41:18.997Z,2.28
2022-12-25T05:43:47.365Z,2.25
2022-12-25T05:46:15.650Z,2.47
2022-12-25T05:48:44.442Z,2.16
2022-12-25T05:51:14.997Z,2.33
2022-12-25T05:53:44.953Z,2.47
2022-12-25T05:56:13.240Z,1.99
2022-12-25T05:58:41.817Z,2.47
2022-12-25T06:01:21.267Z,2.47
2022-12-25T06:03:49.412Z,2.16
2022-12-25T06:06:17.571Z,2.20
2022-12-25T06:08:45.884Z,2.27
2022-12-25T06:11:15.184Z,2.55
2022-12-25T06:13:43.746Z,2.59
2022-12-25T06:16:12.978Z,2.60
2022-12-25T06:18:45.564Z,2.63
2022-12-25T06:21:16.191Z,2.37
2022-12-25T06:23:44.925Z,2.68
2022-12-25T06:26:17.086Z,2.44
2022-12-25T06:28:46.693Z,2.52
2022-12-25T06:31:19.627Z,2.88
2022-12-25T06:33:49.173Z,2.84
2022-12-25T06:36:24.597Z,2.67
2022-12-25T06:38:54.118Z,2.89
2022-12-25T06:41:26.174Z,2.66
2022-12-25T06:43:58.789Z,2.56
2022-12-25T06:46:30.640Z,2.84
2022-12-25T06:49:00.642Z,2.81
2022-12-25T06:51:32.387Z,2.71
2022-12-25T06:54:04.428Z,2.81
2022-12-25T06:56:34.205Z,2.96
2022-12-25T06:59:09.499Z,2.98
2022-12-25T07:01:47.312Z,2.69
2022-12-25T07:04:32.272Z,2.72
2022-12-25T07:07:08.069Z,2.86
2022-12-25T07:09:39.433Z,2.56
2022-12-25T07:12:16.937Z,2.86
2022-12-25T07:14:49.060Z,2.86
2022-12-25T07:17:18.446Z,3.07
2022-12-25T07:19:50.306Z,2.76
2022-12-25T07:22:18.782Z,2.98
2022-12-25T07:24:47.231Z,3.08
2022-12-25T07:27:15.544Z,3.12
2022-12-25T07:29:43.832Z,3.25
2022-12-25T07:32:12.321Z,3.26
2022-12-25T07:34:40.614Z,3.36
2022-12-25T07:37:09.818Z,3.39
2022-12-25T07:39:38.718Z,3.32
2022-12-25T07:42:08.878Z,3.36
2022-12-25T07:44:39.159Z,3.30
2022-12-25T07:47:08.584Z,3.42
2022-12-25T07:49:36.966Z,3.35
2022-12-25T07:52:05.556Z,3.33
2022-12-25T07:54:34.473Z,3.35
2022-12-25T07:57:02.691Z,3.25
2022-12-25T07:59:32.397Z,3.24
2022-12-25T08:02:01.498Z,3.14
2022-12-25T08:04:30.090Z,3.46
2022-12-25T08:06:58.416Z,3.55
2022-12-25T08:09:27.020Z,3.53
2022-12-25T08:11:55.205Z,3.66
2022-12-25T08:14:23.495Z,3.52
2022-12-25T08:16:51.854Z,3.73
2022-12-25T08:19:20.419Z,3.67
2022-12-25T08:21:48.780Z,3.58
2022-12-25T08:24:17.265Z,3.77
2022-12-25T08:26:45.826Z,3.77
2022-12-25T08:29:14.921Z,3.66
2022-12-25T08:31:46.414Z,3.72
2022-12-25T08:34:15.811Z,3.45
2022-12-25T08:36:43.893Z,3.92
2022-12-25T08:39:12.116Z,3.94
2022-12-25T08:41:40.537Z,3.94
2022-12-25T08:44:11.840Z,3.75
2022-12-25T08:46:40.888Z,4.08
2022-12-25T08:49:09.094Z,4.13
2022-12-25T08:51:37.405Z,4.18
2022-12-25T08:54:08.347Z,4.30
2022-12-25T08:56:37.351Z,4.33
2022-12-25T08:59:05.796Z,4.11
2022-12-25T09:01:34.650Z,4.20
2022-12-25T09:04:03.293Z,4.28
2022-12-25T09:06:34.179Z,4.21
2022-12-25T09:09:03.136Z,4.28
2022-12-25T09:11:31.429Z,4.09
2022-12-25T09:14:00.424Z,4.48
2022-12-25T09:16:30.049Z,4.64
2022-12-25T09:18:58.639Z,4.73
2022-12-25T09:21:27.264Z,4.93
2022-12-25T09:23:56.236Z,4.87
2022-12-25T09:26:24.938Z,4.66
2022-12-25T09:28:53.380Z,4.86
2022-12-25T09:31:23.491Z,4.53
2022-12-25T09:33:56.173Z,4.58
2022-12-25T09:36:26.053Z,4.60
2022-12-25T09:38:54.168Z,4.77
2022-12-25T09:41:40.392Z,4.68
2022-12-25T09:44:22.712Z,4.86
2022-12-25T09:47:23.919Z,4.34
2022-12-25T09:50:12.487Z,4.84
2022-12-25T09:53:00.976Z,4.83
2022-12-25T09:55:34.587Z,4.84
2022-12-25T09:58:12.996Z,4.85
2022-12-25T10:00:56.080Z,4.74
2022-12-25T10:03:31.268Z,4.90
2022-12-25T10:06:16.709Z,4.66
2022-12-25T10:09:02.605Z,5.01
2022-12-25T10:12:08.823Z,5.23
2022-12-25T10:15:14.119Z,5.08
2022-12-25T10:18:22.732Z,5.28
2022-12-25T10:20:57.704Z,5.41
2022-12-25T10:23:37.744Z,5.56
2022-12-25T10:26:25.401Z,5.37
2022-12-25T10:29:14.123Z,5.25
2022-12-25T10:31:47.089Z,5.56
2022-12-25T10:34:16.364Z,5.27
2022-12-25T10:36:47.996Z,5.36
2022-12-25T10:39:25.144Z,5.44
2022-12-25T10:42:56.001Z,5.41
2022-12-25T10:45:24.579Z,5.37
2022-12-25T10:48:07.457Z,5.41
2022-12-25T10:50:44.185Z,5.58
2022-12-25T10:53:27.739Z,5.65
2022-12-25T10:56:02.507Z,5.68
2022-12-25T10:58:32.210Z,5.52
2022-12-25T11:01:10.612Z,5.74
2022-12-25T11:03:51.398Z,5.75
2022-12-25T11:06:38.222Z,5.63
2022-12-25T11:09:07.974Z,5.63
2022-12-25T11:11:38.355Z,5.72
2022-12-25T11:14:06.837Z,5.68
2022-12-25T11:16:40.323Z,5.60
2022-12-25T11:19:22.231Z,5.64
2022-12-25T11:22:00.825Z,5.69
2022-12-25T11:24:33.003Z,5.71
2022-12-25T11:27:06.616Z,5.55
2022-12-25T11:29:59.702Z,5.94
2022-12-25T11:32:55.581Z,5.84
2022-12-25T11:35:31.335Z,5.69
2022-12-25T11:37:59.691Z,5.40
2022-12-25T11:40:58.552Z,5.73
2022-12-25T11:43:52.295Z,5.88
2022-12-25T11:46:31.630Z,5.82
2022-12-25T11:49:11.830Z,5.81
2022-12-25T11:51:44.583Z,5.81
2022-12-25T11:54:46.140Z,5.93
2022-12-25T11:57:14.315Z,5.92
2022-12-25T11:59:57.319Z,5.85
2022-12-25T12:03:13.383Z,5.78
2022-12-25T12:06:14.986Z,5.86
2022-12-25T12:08:44.289Z,5.81
2022-12-25T12:11:25.489Z,5.93
2022-12-25T12:14:21.163Z,5.92
2022-12-25T12:16:49.526Z,5.82
2022-12-25T12:19:31.728Z,5.66
2022-12-25T12:22:04.111Z,5.81
2022-12-25T12:24:42.000Z,5.84
2022-12-25T12:27:40.717Z,5.71
2022-12-25T12:30:31.886Z,5.81
2022-12-25T12:33:05.199Z,5.70
2022-12-25T12:35:38.651Z,5.44
2022-12-25T12:38:20.110Z,5.44
2022-12-25T12:41:05.252Z,5.52
2022-12-25T12:44:01.046Z,5.50
2022-12-25T12:46:37.036Z,5.49
2022-12-25T12:49:32.476Z,5.57
2022-12-25T12:52:33.126Z,5.68
2022-12-25T12:55:14.541Z,5.46
2022-12-25T12:57:43.284Z,5.48
2022-12-25T13:00:21.410Z,5.29
2022-12-25T13:03:10.803Z,5.51
2022-12-25T13:05:41.545Z,5.58
2022-12-25T13:08:28.480Z,5.37
2022-12-25T13:11:11.109Z,5.46
2022-12-25T13:13:45.801Z,5.68
2022-12-25T13:16:27.227Z,5.64
2022-12-25T13:18:57.440Z,5.66
2022-12-25T13:21:30.586Z,5.56
2022-12-25T13:24:09.059Z,5.75
2022-12-25T13:26:39.363Z,5.79
2022-12-25T13:29:18.421Z,5.89
2022-12-25T13:31:46.944Z,5.83
2022-12-25T13:34:37.613Z,5.93
2022-12-25T13:37:15.279Z,5.62
2022-12-25T13:40:07.293Z,5.89
2022-12-25T13:42:42.469Z,5.88
2022-12-25T13:45:13.860Z,5.79
2022-12-25T13:47:49.903Z,5.75
2022-12-25T13:50:33.448Z,5.69
2022-12-25T13:53:14.106Z,5.52
2022-12-25T13:55:46.288Z,5.19
2022-12-25T13:58:26.427Z,5.46
2022-12-25T14:00:59.210Z,5.27
2022-12-25T14:03:42.883Z,5.31
2022-12-25T14:06:30.733Z,5.47
2022-12-25T14:08:59.890Z,5.04
2022-12-25T14:11:31.763Z,5.11
2022-12-25T14:14:27.603Z,4.74
2022-12-25T14:16:58.740Z,4.97
2022-12-25T14:19:33.620Z,4.95
2022-12-25T14:22:16.429Z,4.96
2022-12-25T14:24:44.764Z,4.90
2022-12-25T14:27:27.857Z,4.67
2022-12-25T14:30:00.858Z,4.61
2022-12-25T14:32:39.131Z,4.90
2022-12-25T14:35:12.561Z,4.86
2022-12-25T14:37:43.659Z,4.83
2022-12-25T14:40:32.559Z,4.45
2022-12-25T14:43:19.747Z,4.64
2022-12-25T14:46:03.111Z,4.75
2022-12-25T14:48:33.376Z,4.67
2022-12-25T14:51:18.115Z,4.91
2022-12-25T14:54:02.892Z,4.91
2022-12-25T14:56:39.398Z,4.60
2022-12-25T14:59:16.706Z,4.54
2022-12-25T15:01:49.816Z,4.86
2022-12-25T15:04:20.874Z,4.80
2022-12-25T15:07:08.783Z,4.63
2022-12-25T15:09:38.037Z,4.76
2022-12-25T15:12:06.682Z,4.69
2022-12-25T15:14:38.524Z,4.57
2022-12-25T15:17:07.030Z,4.64
2022-12-25T15:19:38.789Z,3.99
2022-12-25T15:22:10.290Z,4.68
2022-12-25T15:24:38.536Z,4.59
2022-12-25T15:27:18.539Z,4.61
2022-12-25T15:32:35.826Z,4.44
2022-12-25T15:35:07.984Z,4.31
2022-12-25T15:37:37.580Z,4.45
2022-12-25T15:40:10.701Z,4.51
2022-12-25T15:42:39.823Z,4.48
2022-12-25T15:45:27.945Z,4.46
2022-12-25T15:47:57.226Z,4.48
2022-12-25T15:50:25.575Z,4.26
2022-12-25T15:52:53.790Z,4.44
2022-12-25T15:55:22.431Z,4.15
2022-12-25T15:57:54.739Z,4.38
2022-12-25T16:00:25.989Z,4.05
2022-12-25T16:02:54.682Z,4.15
2022-12-25T16:05:23.480Z,4.39
2022-12-25T16:07:52.385Z,4.08
2022-12-25T16:10:23.179Z,4.39
2022-12-25T16:12:51.817Z,4.26
2022-12-25T16:15:20.155Z,4.40
2022-12-25T16:17:48.480Z,4.50
2022-12-25T16:20:17.304Z,4.44
2022-12-25T16:22:45.646Z,4.46
2022-12-25T16:25:17.037Z,4.12
2022-12-25T16:27:45.560Z,4.56
2022-12-25T16:30:17.722Z,4.35
2022-12-25T16:32:50.667Z,4.51
2022-12-25T16:35:19.232Z,4.46
2022-12-25T16:37:48.405Z,4.24
2022-12-25T16:40:18.495Z,4.30
2022-12-25T16:42:47.939Z,4.26
2022-12-25T16:45:16.953Z,4.26
2022-12-25T16:47:46.578Z,4.05
2022-12-25T16:50:17.078Z,4.36
2022-12-25T16:52:45.963Z,4.08
2022-12-25T16:55:14.707Z,4.30
2022-12-25T16:57:48.250Z,4.14
2022-12-25T17:00:18.805Z,4.40
2022-12-25T17:02:49.407Z,4.36
2022-12-25T17:05:21.549Z,4.23
2022-12-25T17:07:50.851Z,4.15
2022-12-25T17:10:20.143Z,4.51
2022-12-25T17:12:49.222Z,4.38
2022-12-25T17:15:18.437Z,4.50
2022-12-25T17:17:47.010Z,4.48
2022-12-25T17:20:16.201Z,4.51
2022-12-25T17:22:44.905Z,4.32
2022-12-25T17:25:13.433Z,3.92
2022-12-25T17:27:43.484Z,4.28
2022-12-25T17:30:12.101Z,3.98
2022-12-25T17:32:40.765Z,4.07
2022-12-25T17:35:14.248Z,3.92
2022-12-25T17:37:43.125Z,3.99
2022-12-25T17:40:12.522Z,4.26
2022-12-25T17:42:41.809Z,4.21
2022-12-25T17:45:12.244Z,4.21
2022-12-25T17:47:41.108Z,4.05
2022-12-25T17:50:13.208Z,4.17
2022-12-25T17:52:41.381Z,4.14
2022-12-25T17:55:10.905Z,4.27
2022-12-25T17:57:41.260Z,4.33
2022-12-25T18:00:11.913Z,4.37
2022-12-25T18:02:47.595Z,4.36
2022-12-25T18:05:18.471Z,4.36
2022-12-25T18:07:48.489Z,4.38
2022-12-25T18:10:17.940Z,4.20
2022-12-25T18:12:47.826Z,4.13
2022-12-25T18:15:19.485Z,4.23
2022-12-25T18:17:49.234Z,4.43
2022-12-25T18:20:18.966Z,4.25
2022-12-25T18:22:48.770Z,4.20
2022-12-25T18:25:18.399Z,3.70
2022-12-25T18:27:48.242Z,4.10
2022-12-25T18:30:17.689Z,3.70
2022-12-25T18:32:47.025Z,4.34
2022-12-25T18:35:15.699Z,4.47
2022-12-25T18:37:44.637Z,4.43
2022-12-25T18:40:13.358Z,4.34
2022-12-25T18:42:43.210Z,4.36
2022-12-25T18:45:16.341Z,4.27
2022-12-25T18:47:47.834Z,4.08
2022-12-25T18:50:16.885Z,4.36
2022-12-25T18:52:47.808Z,4.39
2022-12-25T18:55:20.091Z,4.35
2022-12-25T18:57:50.205Z,4.09
2022-12-25T19:00:19.510Z,4.21
2022-12-25T19:02:49.116Z,4.25
2022-12-25T19:05:18.077Z,4.31
2022-12-25T19:07:46.570Z,3.51
2022-12-25T19:10:16.215Z,4.39
2022-12-25T19:12:44.986Z,4.38
2022-12-25T19:15:14.212Z,3.99
2022-12-25T19:17:43.842Z,4.29
2022-12-25T19:20:14.100Z,4.21
2022-12-25T19:22:44.096Z,3.99
2022-12-25T19:25:14.786Z,4.20
2022-12-25T19:27:45.350Z,3.94
2022-12-25T19:30:14.630Z,4.17
2022-12-25T19:32:44.059Z,3.87
2022-12-25T19:35:12.661Z,4.17
2022-12-25T19:37:42.199Z,4.11
2022-12-25T19:40:14.814Z,4.20
2022-12-25T19:42:44.934Z,4.19
2022-12-25T19:45:14.847Z,4.23
2022-12-25T19:47:44.917Z,4.23
2022-12-25T19:50:13.910Z,4.21
2022-12-25T19:52:42.964Z,3.96
2022-12-25T19:55:11.928Z,4.21
2022-12-25T19:57:41.725Z,4.17
2022-12-25T20:00:12.340Z,4.15
2022-12-25T20:02:47.950Z,3.65
2022-12-25T20:05:18.198Z,3.55
2022-12-25T20:07:47.850Z,3.80
2022-12-25T20:10:17.464Z,2.92
2022-12-25T20:12:46.939Z,3.85
2022-12-25T20:15:16.318Z,3.89
2022-12-25T20:17:47.439Z,3.92
2022-12-25T20:20:16.658Z,3.63
2022-12-25T20:22:46.022Z,3.42
2022-12-25T20:25:15.592Z,3.42
2022-12-25T20:27:44.675Z,3.34
2022-12-25T20:30:15.353Z,3.30
2022-12-25T20:32:50.166Z,3.41
2022-12-25T20:35:19.886Z,3.36
2022-12-25T20:37:49.165Z,3.37
2022-12-25T20:40:18.150Z,3.31
2022-12-25T20:42:47.550Z,3.31
2022-12-25T20:45:16.045Z,3.22
2022-12-25T20:47:44.432Z,3.15
2022-12-25T20:50:13.079Z,3.02
2022-12-25T20:52:41.447Z,3.26
2022-12-25T20:55:10.755Z,3.21
2022-12-25T20:57:40.530Z,2.98
2022-12-25T21:00:10.688Z,3.21
2022-12-25T21:02:39.169Z,3.18
2022-12-25T21:05:11.790Z,3.17
2022-12-25T21:07:41.087Z,2.90
2022-12-25T21:10:13.483Z,3.08
2022-12-25T21:12:41.969Z,3.04
2022-12-25T21:15:15.327Z,3.09
2022-12-25T21:17:44.486Z,3.02
2022-12-25T21:20:13.102Z,3.03
2022-12-25T21:22:41.655Z,2.74
2022-12-25T21:25:14.011Z,3.08
2022-12-25T21:27:43.009Z,3.09
2022-12-25T21:30:17.650Z,3.05
2022-12-25T21:33:14.703Z,2.99
2022-12-25T21:35:45.692Z,2.94
2022-12-25T21:38:15.061Z,2.59
2022-12-25T21:40:43.842Z,2.72
2022-12-25T21:43:14.798Z,2.85
2022-12-25T21:45:44.592Z,2.80
2022-12-25T21:48:13.696Z,2.75
2022-12-25T21:51:00.617Z,2.77
2022-12-25T21:53:29.324Z,2.75
2022-12-25T21:56:03.086Z,2.70
2022-12-25T21:58:32.087Z,2.19
2022-12-25T22:01:04.586Z,2.60
2022-12-25T22:03:33.770Z,2.35
2022-12-25T22:06:22.013Z,2.30
2022-12-25T22:08:50.932Z,2.61
2022-12-25T22:11:40.248Z,2.61
2022-12-25T22:14:52.804Z,2.39
2022-12-25T22:17:47.501Z,2.59
2022-12-25T22:20:26.614Z,2.42
2022-12-25T22:22:55.398Z,2.53
2022-12-25T22:25:24.802Z,2.13
2022-12-25T22:27:53.963Z,2.13
2022-12-25T22:30:27.015Z,2.49
2022-12-25T22:33:04.015Z,2.45
2022-12-25T22:35:33.362Z,2.46
2022-12-25T22:38:02.502Z,2.49
2022-12-25T22:40:32.165Z,2.50
2022-12-25T22:43:01.496Z,2.47
2022-12-25T22:45:30.714Z,2.46
2022-12-25T22:47:59.688Z,2.35
2022-12-25T22:50:28.298Z,2.37
2022-12-25T22:52:57.301Z,2.29
2022-12-25T22:55:26.225Z,2.26
2022-12-25T22:57:58.760Z,2.22
2022-12-25T23:00:27.440Z,2.36
2022-12-25T23:02:56.471Z,2.26
2022-12-25T23:05:25.152Z,2.44
2022-12-25T23:07:53.581Z,2.42
2022-12-25T23:10:22.226Z,2.19
2022-12-25T23:13:12.921Z,2.47
2022-12-25T23:15:41.656Z,2.42
2022-12-25T23:18:31.874Z,2.37
2022-12-25T23:21:20.468Z,2.34
2022-12-25T23:24:08.053Z,2.39
2022-12-25T23:26:37.509Z,2.12
2022-12-25T23:29:25.022Z,2.39
2022-12-25T23:31:54.355Z,2.46
2022-12-25T23:34:23.444Z,2.50
2022-12-25T23:36:52.094Z,2.33
2022-12-25T23:39:20.545Z,2.52
2022-12-25T23:41:49.000Z,2.35
2022-12-25T23:44:17.878Z,2.52
2022-12-25T23:46:52.818Z,2.23
2022-12-25T23:49:24.709Z,2.11
2022-12-25T23:51:54.580Z,2.48
2022-12-25T23:54:33.208Z,2.48
2022-12-25T23:57:02.289Z,2.42
2022-12-25T23:59:31.822Z,2.46
